Weather observations for the past three days for
Big Bear City Airport
| Date | Time (pdt) | Wind (mph) | Vis. (mi.) | Weather | Sky Cond. | Temperature (ºF) | Relative Humidity | Wind Chill (°F) | Heat Index (°F) | Pressure | Precipitation (in) | ||||||
|---|---|---|---|---|---|---|---|---|---|---|---|---|---|---|---|---|---|
| Air | Dwpt | 6 hour | altimeter (in) | sea level (mb) | 1 hr | 3 hr | 6 hr | ||||||||||
| Max. | Min. | ||||||||||||||||
| 07 | 01:55 | Calm | 10.00 | Fair | CLR | 35.2 | 24.4 | 65% | 30.26 | 0.0 | |||||||
| 07 | 01:35 | Calm | 10.00 | Fair | CLR | 35.6 | 24.3 | 63% | 30.26 | 0.0 | |||||||
| 07 | 01:15 | Calm | 10.00 | Fair | CLR | 36.3 | 24.6 | 63% | 30.26 | 0.0 | |||||||
| 07 | 00:55 | Calm | 10.00 | Fair | CLR | 37 | 24.6 | 61% | 30.26 | 0.0 | |||||||
| 07 | 00:35 | Calm | 10.00 | Fair | CLR | 36.9 | 25 | 62% | 30.26 | 0.0 | |||||||
| 07 | 00:15 | Calm | 10.00 | Fair | CLR | 37.2 | 25.2 | 62% | 30.26 | 0.0 | |||||||
| 06 | 23:55 | Calm | 10.00 | Fair | CLR | 39 | 25.2 | 58% | 30.26 | 0.0 | |||||||
| 06 | 23:35 | Calm | 10.00 | Fair | CLR | 38.5 | 24.6 | 58% | 30.26 | 0.0 | |||||||
| 06 | 23:15 | Calm | 10.00 | Fair | CLR | 39.6 | 24.8 | 56% | 30.25 | 0.0 | |||||||
| 06 | 22:55 | Calm | 10.00 | Fair | CLR | 40.6 | 24.8 | 61.3 | 40.6 | 53% | 30.25 | 0.0 | |||||
| 06 | 22:35 | Calm | 10.00 | Fair | CLR | 41.4 | 24.6 | 51% | 30.25 | 0.0 | |||||||
| 06 | 22:15 | Calm | 10.00 | Fair | CLR | 43.2 | 25.3 | 49% | 30.25 | 0.0 | |||||||
| 06 | 21:55 | Calm | 10.00 | Fair | CLR | 43.7 | 25.5 | 49% | 30.24 | 0.0 | |||||||
| 06 | 21:35 | Calm | 10.00 | Fair | CLR | 45.1 | 25.7 | 47% | 30.24 | 0.0 | |||||||
| 06 | 21:15 | Calm | 10.00 | Fair | CLR | 48.4 | 25.5 | 41% | 30.24 | 0.0 | |||||||
| 06 | 20:55 | Calm | 10.00 | Fair | CLR | 50.5 | 25.9 | 38% | 30.23 | 0.0 | |||||||
| 06 | 20:35 | Calm | 10.00 | Fair | CLR | 50.4 | 26.6 | 40% | 30.23 | 0.0 | |||||||
| 06 | 20:15 | Calm | 10.00 | Fair | CLR | 53.1 | 26.8 | 36% | 30.22 | 0.0 | |||||||
| 06 | 19:55 | Calm | 10.00 | Fair | CLR | 57 | 25.9 | 30% | 30.21 | 0.0 | |||||||
| 06 | 19:35 | N 3 | 10.00 | Fair | CLR | 57.6 | 25.7 | 29% | 30.21 | 0.0 | |||||||
| 06 | 19:15 | NE 8 | 10.00 | Fair | CLR | 58.5 | 25.3 | 28% | 30.2 | 0.0 | |||||||
| 06 | 18:55 | NE 10 | 10.00 | Fair | CLR | 59.4 | 24.4 | 26% | 30.2 | 0.0 | |||||||
| 06 | 18:35 | Vrbl 6 | 10.00 | Fair | CLR | 59.7 | 23.7 | 25% | 30.19 | 0.0 | |||||||
| 06 | 18:15 | NE 12 | 9.00 | Fair | CLR | 60.1 | 22.1 | 23% | 30.19 | 0.0 | |||||||
| 06 | 17:55 | NE 10 | 8.00 | Fair | CLR | 60.8 | 20.1 | 21% | 30.19 | 0.0 | |||||||
| 06 | 17:35 | Vrbl 7 | 8.00 | Fair | CLR | 60.8 | 18 | 19% | 30.19 | 0.0 | |||||||
| 06 | 17:15 | N 8 | 9.00 | Fair | CLR | 60.1 | 26.8 | 28% | 30.18 | 0.0 | |||||||
| 06 | 16:55 | NE 12 | 9.00 | Fair | CLR | 60.4 | 26.4 | 61.3 | 55 | 27% | 30.18 | 0.0 | |||||
| 06 | 16:35 | Vrbl 6 | 10.00 | Fair | CLR | 60.3 | 26.1 | 27% | 30.18 | 0.0 | |||||||
| 06 | 16:15 | N 13 G 16 | 10.00 | A Few Clouds | FEW060 | 61 | 26.4 | 27% | 30.18 | 0.0 | |||||||
| 06 | 15:55 | NE 14 G 22 | 9.00 | Fair | CLR | 59.5 | 28.9 | 31% | 30.18 | 0.0 | |||||||
| 06 | 15:35 | N 8 | 10.00 | A Few Clouds | FEW060 | 59.9 | 28.4 | 30% | 30.19 | 0.0 | |||||||
| 06 | 15:15 | NE 8 G 24 | 10.00 | Partly Cloudy | SCT060 | 59.5 | 30.7 | 34% | 30.19 | 0.0 | |||||||
| 06 | 14:55 | NE 10 | 10.00 | Mostly Cloudy | BKN055 | 58.5 | 30.9 | 35% | 30.19 | 0.0 | |||||||
| 06 | 14:35 | N 12 G 17 | 10.00 | A Few Clouds | FEW055 | 58.6 | 31.6 | 36% | 30.2 | 0.0 | |||||||
| 06 | 14:15 | N 12 | 10.00 | Fair | CLR | 60.4 | 30.9 | 33% | 30.2 | 0.0 | |||||||
| 06 | 13:55 | E 8 | 10.00 | A Few Clouds | FEW340 | 58.1 | 30.7 | 35% | 30.2 | 0.0 | |||||||
| 06 | 13:35 | E 13 G 18 | 10.00 | Fair | CLR | 58.6 | 30.2 | 34% | 30.2 | 0.0 | |||||||
| 06 | 13:15 | E 12 G 20 | 10.00 | Fair | CLR | 57.9 | 30.7 | 36% | 30.19 | 0.0 | |||||||
| 06 | 12:55 | N 9 G 18 | 10.00 | Fair | CLR | 57.7 | 30.6 | 36% | 30.19 | 0.0 | |||||||
| 06 | 12:35 | E 14 | 10.00 | Fair | CLR | 57.7 | 30.7 | 36% | 30.2 | 0.0 | |||||||
| 06 | 12:15 | NE 10 G 18 | 10.00 | Fair | CLR | 56.1 | 30.4 | 38% | 30.2 | 0.0 | |||||||
| 06 | 11:55 | NE 13 | 10.00 | Fair | CLR | 56.3 | 31.3 | 39% | 30.2 | 0.0 | |||||||
| 06 | 11:35 | NE 10 G 16 | 10.00 | Fair | CLR | 55.6 | 31.3 | 40% | 30.2 | 0.0 | |||||||
| 06 | 11:15 | E 8 | 10.00 | Fair | CLR | 55.9 | 30.6 | 38% | 30.2 | 0.0 | |||||||
| 06 | 10:55 | NE 13 G 18 | 10.00 | Fair | CLR | 55.2 | 30.2 | 55.9 | 27.5 | 39% | 30.19 | 0.0 | |||||
| 06 | 10:35 | NE 9 | 10.00 | Fair | CLR | 55 | 30.2 | 39% | 30.19 | 0.0 | |||||||
| 06 | 10:15 | NE 10 G 20 | 10.00 | Fair | CLR | 55.4 | 30 | 38% | 30.18 | 0.0 | |||||||
| 06 | 09:55 | E 12 G 16 | 10.00 | Fair | CLR | 54 | 29.8 | 40% | 30.17 | 0.0 | |||||||
| 06 | 09:35 | NE 8 | 10.00 | Fair | CLR | 53.4 | 28 | 38% | 30.17 | 0.0 | |||||||
| 06 | 09:15 | NE 9 | 10.00 | Fair | CLR | 53.4 | 28 | 38% | 30.17 | 0.0 | |||||||
| 06 | 08:55 | E 12 | 10.00 | Fair | CLR | 52.9 | 28.2 | 39% | 30.16 | 0.0 | |||||||
| 06 | 08:35 | Vrbl 3 | 10.00 | Fair | CLR | 49.6 | 30.7 | 48% | 30.15 | 0.0 | |||||||
| 06 | 08:15 | Calm | 10.00 | Fair | CLR | 43.9 | 35.8 | 73% | 30.16 | 0.0 | |||||||
| 06 | 07:55 | Calm | 10.00 | Fair | CLR | 39.9 | 34.7 | 82% | 30.15 | 0.0 | |||||||
| 06 | 07:35 | Calm | 10.00 | Fair | CLR | 36.9 | 32.4 | 84% | 30.15 | 0.0 | |||||||
| 06 | 07:15 | Calm | 10.00 | Fair | CLR | 34.2 | 30.6 | 87% | 30.15 | 0.0 | |||||||
| 06 | 06:55 | Calm | 9.00 | A Few Clouds | FEW001 | 31.3 | 28.9 | 91% | 30.14 | 0.0 | |||||||
| 06 | 06:35 | Calm | 9.00 | Partly Cloudy | SCT001 | 28.8 | 27.5 | 95% | 30.13 | 0.0 | |||||||
| 06 | 06:15 | Calm | 9.00 | A Few Clouds | FEW001 | 28.4 | 26.2 | 92% | 30.13 | 0.0 | |||||||
| 06 | 05:55 | Calm | 9.00 | A Few Clouds | FEW001 | 27.7 | 26.6 | 96% | 30.12 | 0.0 | |||||||
| 06 | 05:35 | Calm | 10.00 | Mostly Cloudy | BKN001 | 27.9 | 26.1 | 93% | 30.12 | 0.0 | |||||||
| 06 | 05:15 | Calm | 0.75 | Fog/Mist | VV001 | 28.9 | 28.8 | 99% | 30.11 | 0.0 | |||||||
| 06 | 04:55 | Calm | 5.00 | Fog/Mist | OVC002 | 28.9 | 28.4 | 31.6 | 28.8 | 98% | 30.11 | 0.0 | |||||
| 06 | 04:35 | Calm | 6.00 | Fog/Mist | OVC001 | 28.9 | 27.1 | 93% | 30.1 | 0.0 | |||||||
| 06 | 04:15 | Calm | 0.50 | Freezing Fog | VV002 | 29.1 | 29.1 | 100% | 30.1 | 0.0 | |||||||
| 06 | 03:55 | Calm | 2.00 | Fog/Mist | OVC002 | 29.3 | 28.9 | 99% | 30.09 | 0.0 | |||||||
| 06 | 03:35 | Calm | 1.50 | Fog/Mist | OVC002 | 29.7 | 29.5 | 99% | 30.09 | 0.0 | |||||||
| 06 | 03:15 | Calm | 5.00 | Fog/Mist | OVC002 | 29.3 | 28.6 | 97% | 30.09 | 0.0 | |||||||
| 06 | 02:55 | Calm | 1.75 | Fog/Mist | OVC002 | 30.4 | 30 | 99% | 30.09 | 0.0 | |||||||
| 06 | 02:35 | SW 3 | 4.00 | Fog/Mist | BKN002 | 30.4 | 29.8 | 98% | 30.09 | 0.0 | |||||||
| 06 | 02:15 | Calm | 4.00 | Fog/Mist | BKN001 | 30.6 | 30.4 | 99% | 30.09 | 0.0 | |||||||
| 06 | 01:55 | Calm | 2.50 | Fog/Mist | OVC002 | 30.9 | 30.7 | 99% | 30.09 | 0.0 | |||||||
| 06 | 01:35 | Calm | 0.75 | Fog/Mist | VV002 | 31.5 | 31.5 | 100% | 30.09 | 0.0 | |||||||
| 06 | 01:15 | Calm | 0.50 | Freezing Fog | VV002 | 31.5 | 31.3 | 99% | 30.09 | 0.0 | |||||||
| 06 | 00:55 | Calm | 10.00 | Mostly Cloudy | BKN002 | 30.6 | 27.7 | 89% | 30.09 | 0.0 | |||||||
| 06 | 00:35 | Calm | 10.00 | Partly Cloudy | SCT003 | 29.7 | 27.1 | 90% | 30.09 | 0.0 | |||||||
| 06 | 00:15 | Calm | 10.00 | Fair | CLR | 29.7 | 27 | 90% | 30.09 | 0.0 | |||||||
| 05 | 23:55 | Calm | 10.00 | Fair | CLR | 30.4 | 27.3 | 88% | 30.08 | 0.0 | |||||||
| 05 | 23:35 | S 3 | 10.00 | Fair | CLR | 30.4 | 27.3 | 88% | 30.08 | 0.0 | |||||||
| 05 | 22:55 | Calm | 10.00 | Fair | CLR | 31.8 | 28.8 | 45.7 | 31.8 | 88% | 30.07 | 0.0 | |||||
| 05 | 22:35 | Calm | 10.00 | Fair | CLR | 32.9 | 29.7 | 88% | 30.06 | 0.0 | |||||||
| 05 | 22:15 | Calm | 10.00 | Fair | CLR | 33.1 | 28.9 | 85% | 30.06 | 0.0 | |||||||
| 05 | 21:55 | Calm | 10.00 | A Few Clouds | FEW009 | 34.7 | 30.6 | 85% | 30.05 | 0.0 | |||||||
| 05 | 21:35 | Calm | 10.00 | Partly Cloudy | SCT009 | 35.2 | 30.7 | 84% | 30.05 | 0.0 | |||||||
| 05 | 21:15 | Calm | 10.00 | Fair | CLR | 36.3 | 31.3 | 82% | 30.04 | 0.0 | |||||||
| 05 | 20:55 | Calm | 10.00 | Fair | CLR | 37.4 | 32 | 81% | 30.03 | 0.0 | |||||||
| 05 | 20:35 | SW 3 | 10.00 | Fair | CLR | 37.8 | 32.5 | 82% | 30.02 | 0.0 | |||||||
| 05 | 20:15 | SW 3 | 10.00 | A Few Clouds | FEW012 | 38.7 | 32.4 | 78% | 30.02 | 0.0 | |||||||
| 05 | 19:55 | SW 5 | 9.00 | A Few Clouds | FEW011 | 40.1 | 34.3 | 80% | 37 | 30.01 | 0.0 | ||||||
| 05 | 19:35 | Vrbl 3 | 10.00 | Fair | CLR | 40.5 | 34.9 | 81% | 30 | 0.0 | |||||||
| 05 | 19:15 | W 3 | 10.00 | A Few Clouds | FEW034 | 41.4 | 33.6 | 74% | 30 | 0.0 | |||||||
| 05 | 18:55 | W 7 | 10.00 | Partly Cloudy | SCT037 | 42.3 | 33.3 | 71% | 38 | 29.98 | 0.0 | ||||||
| 05 | 18:35 | W 7 | 10.00 | Mostly Cloudy | BKN038 | 42.8 | 33.8 | 71% | 39 | 29.98 | 0.0 | ||||||
| 05 | 18:15 | W 12 | 9.00 | Mostly Cloudy | BKN039 | 42.8 | 34.2 | 72% | 37 | 29.98 | 0.0 | ||||||
| 05 | 17:55 | W 8 | 9.00 | Mostly Cloudy | BKN041 | 42.4 | 32.9 | 69% | 38 | 29.97 | 0.0 | ||||||
| 05 | 17:35 | W 9 | 10.00 | Mostly Cloudy | FEW026 BKN038 | 43.3 | 33.1 | 67% | 39 | 29.97 | 0.0 | ||||||
| 05 | 17:15 | Vrbl 5 | 9.00 | Overcast | FEW028 OVC038 | 45.1 | 32 | 60% | 43 | 29.96 | 0.0 | ||||||
| 05 | 16:55 | Vrbl 5 | 9.00 | Overcast | OVC042 | 46.2 | 31.6 | 47.8 | 41 | 57% | 45 | 29.96 | 0.0 | ||||
| 05 | 16:35 | W 13 | 10.00 | Mostly Cloudy | FEW029 BKN042 | 47.7 | 30.4 | 51% | 43 | 29.96 | 0.0 | ||||||
| 05 | 16:15 | SW 7 | 10.00 | Partly Cloudy | SCT029 | 47.1 | 31.1 | 54% | 44 | 29.96 | 0.0 | ||||||
| 05 | 15:55 | SW 8 | 10.00 | Mostly Cloudy | SCT030 BKN037 BKN150 | 45 | 29.5 | 55% | 41 | 29.96 | 0.0 | ||||||
| 05 | 15:35 | W 12 | 10.00 | A Few Clouds | FEW150 | 45.1 | 28.2 | 52% | 40 | 29.96 | 0.0 | ||||||
| 05 | 15:15 | W 10 | 10.00 | Partly Cloudy | SCT032 | 46 | 29.7 | 53% | 42 | 29.97 | 0.0 | ||||||
| 05 | 14:55 | W 8 | 10.00 | A Few Clouds | FEW160 | 45.3 | 28 | 51% | 42 | 29.97 | 0.0 | ||||||
| 05 | 14:35 | W 14 | 10.00 | A Few Clouds | FEW160 | 44.6 | 28.8 | 54% | 39 | 29.98 | 0.0 | ||||||
| 05 | 14:15 | W 9 G 17 | 10.00 | Partly Cloudy | FEW028 SCT320 | 45.7 | 27.7 | 50% | 42 | 29.98 | 0.0 | ||||||
| 05 | 13:55 | W 17 | 10.00 | Partly Cloudy | SCT028 SCT180 | 43.2 | 28 | 55% | 36 | 29.99 | 0.0 | ||||||
| 05 | 13:35 | W 16 | 10.00 | Partly Cloudy | SCT027 | 43 | 29.7 | 59% | 36 | 29.98 | 0.0 | ||||||
| 05 | 13:15 | W 15 | 10.00 | Mostly Cloudy | BKN024 | 43.5 | 27.9 | 54% | 37 | 29.98 | 0.0 | ||||||
| 05 | 12:55 | W 17 | 10.00 | Overcast | OVC023 | 41.5 | 28.8 | 61% | 34 | 29.98 | 0.0 | ||||||
| 05 | 12:35 | W 16 | 10.00 | Overcast | OVC020 | 41.4 | 30.2 | 65% | 34 | 29.98 | 0.0 | ||||||
| 05 | 12:15 | W 14 | 10.00 | Overcast | BKN018 OVC024 | 42.1 | 30.7 | 64% | 35 | 29.98 | 0.0 | ||||||
| 05 | 11:55 | W 16 | 10.00 | Overcast | OVC018 | 41.5 | 31.5 | 67% | 34 | 29.97 | 0.0 | ||||||
| 05 | 11:35 | W 14 | 10.00 | Overcast | BKN018 OVC023 | 41.4 | 31.6 | 68% | 35 | 29.97 | 0.0 | ||||||
| 05 | 11:15 | SW 8 | 10.00 | Partly Cloudy | SCT021 | 44.2 | 31.6 | 61% | 40 | 29.97 | 0.0 | ||||||
| 05 | 10:55 | S 8 | 10.00 | Partly Cloudy | FEW021 SCT026 | 42.6 | 30.4 | 43 | 33.6 | 62% | 38 | 29.96 | 0.0 | ||||
| 05 | 10:35 | Vrbl 7 | 10.00 | Mostly Cloudy | SCT020 BKN025 | 42.3 | 30.2 | 62% | 38 | 29.95 | 0.0 | ||||||
| 05 | 10:15 | SW 9 | 10.00 | Overcast | BKN020 BKN025 OVC031 | 41.5 | 31.1 | 67% | 36 | 29.95 | 0.0 | ||||||
| 05 | 09:55 | W 8 | 10.00 | Overcast | OVC016 | 40.3 | 30.9 | 69% | 35 | 29.95 | 0.0 | ||||||
| 05 | 09:35 | W 10 | 9.00 | Overcast | OVC013 | 39.2 | 32.2 | 76% | 33 | 29.95 | 0.0 | ||||||
| 05 | 09:15 | SW 7 | 9.00 | Overcast | BKN013 OVC019 | 39 | 31.5 | 74% | 35 | 29.93 | 0.0 | ||||||
| 05 | 08:55 | SW 5 | 8.00 | Overcast | BKN011 OVC017 | 37.8 | 31.6 | 79% | 35 | 29.93 | 0.0 | ||||||
| 05 | 08:35 | SW 8 | 9.00 | Overcast | OVC011 | 38.3 | 31.6 | 77% | 33 | 29.92 | 0.0 | ||||||
| 05 | 08:15 | Vrbl 6 | 7.00 | Overcast | BKN009 OVC015 | 36.7 | 32.5 | 85% | 33 | 29.92 | 0.0 | ||||||
| 05 | 07:55 | SW 6 | 5.00 | Overcast with Haze | FEW007 BKN010 OVC020 | 36.1 | 32 | 85% | 32 | 29.92 | 0.0 | ||||||
| 05 | 07:35 | Vrbl 5 | 9.00 | Overcast | BKN010 OVC018 | 36 | 30.6 | 81% | 33 | 29.92 | 0.0 | ||||||
| 05 | 07:15 | W 6 | 6.00 | Fog/Mist | BKN008 OVC017 | 35.2 | 32 | 88% | 31 | 29.92 | 0.0 | ||||||
| 05 | 06:55 | SW 8 | 9.00 | Overcast | BKN016 OVC022 | 35.1 | 30.2 | 82% | 29 | 29.91 | 0.0 | ||||||
| 05 | 06:35 | SW 5 | 9.00 | Overcast | BKN016 OVC022 | 34.7 | 29.8 | 82% | 31 | 29.91 | 0.0 | ||||||
| 05 | 06:15 | Vrbl 7 | 9.00 | Overcast | BKN014 OVC019 | 34.7 | 29.5 | 81% | 29 | 29.91 | 0.0 | ||||||
| 05 | 05:55 | Vrbl 5 | 10.00 | Overcast | OVC014 | 34.7 | 29.5 | 81% | 31 | 29.91 | 0.0 | ||||||
| 05 | 05:35 | Vrbl 3 | 10.00 | Overcast | BKN013 OVC020 | 34.5 | 29.8 | 83% | 29.91 | 0.0 | |||||||
| 05 | 05:15 | Vrbl 7 | 10.00 | Partly Cloudy | SCT015 SCT021 | 33.6 | 29.1 | 84% | 28 | 29.91 | 0.0 | ||||||
| 05 | 04:55 | SW 5 | 10.00 | Mostly Cloudy | SCT016 BKN024 | 34.3 | 28.8 | 36.1 | 34.3 | 80% | 31 | 29.91 | 0.0 | ||||
| 05 | 04:35 | W 5 | 10.00 | Mostly Cloudy | SCT017 BKN023 | 34.5 | 29.1 | 81% | 31 | 29.92 | 0.0 | ||||||
| 05 | 04:15 | W 5 | 10.00 | Mostly Cloudy | SCT017 BKN022 | 34.9 | 29.3 | 80% | 31 | 29.91 | 0.0 | ||||||
| 05 | 03:55 | W 12 | 10.00 | Mostly Cloudy | BKN015 | 34.7 | 29.5 | 81% | 27 | 29.91 | 0.0 | ||||||
| 05 | 03:35 | W 9 | 10.00 | Mostly Cloudy | BKN014 | 34.9 | 30 | 82% | 28 | 29.91 | 0.0 | ||||||
| 05 | 03:15 | W 8 | 10.00 | Mostly Cloudy | BKN014 | 35.1 | 30.2 | 82% | 29 | 29.91 | 0.0 | ||||||
| 05 | 02:55 | Vrbl 7 | 10.00 | Overcast | SCT006 OVC017 | 35.1 | 30.9 | 85% | 30 | 29.92 | 0.0 | ||||||
| 05 | 02:35 | W 9 G 16 | 7.00 | Overcast | BKN006 OVC013 | 34.9 | 32.2 | 90% | 28 | 29.93 | 0.0 | ||||||
| 05 | 02:15 | SW 7 | 7.00 | Overcast | SCT006 OVC011 | 35.2 | 32.5 | 90% | 30 | 29.93 | 0.0 | ||||||
| 05 | 01:55 | SW 8 | 10.00 | Overcast | OVC012 | 35.4 | 30.7 | 83% | 30 | 29.94 | 0.0 | ||||||
| 05 | 01:35 | Vrbl 6 | 10.00 | Mostly Cloudy | BKN013 | 35.4 | 30.7 | 83% | 31 | 29.94 | 0.0 | ||||||
| 05 | 01:15 | W 7 | 10.00 | Fair | CLR | 35.6 | 30.9 | 83% | 31 | 29.95 | 0.0 | ||||||
| 05 | 00:55 | Vrbl 3 | 10.00 | Fair | CLR | 34.9 | 30.4 | 84% | 29.96 | 0.0 | |||||||
| 05 | 00:35 | Calm | 10.00 | Fair | CLR | 35.2 | 30.2 | 82% | 29.96 | 0.0 | |||||||
| 05 | 00:15 | W 9 | 10.00 | A Few Clouds | FEW015 | 35.4 | 29.7 | 80% | 29 | 29.95 | 0.0 | ||||||
| 04 | 23:55 | W 14 G 20 | 10.00 | Partly Cloudy | SCT015 | 36 | 29.1 | 76% | 28 | 29.96 | 0.0 | ||||||
| 04 | 23:35 | W 10 | 10.00 | Mostly Cloudy | BKN015 | 36 | 29.7 | 78% | 29 | 29.96 | 0.0 | ||||||
| 04 | 23:15 | SW 8 | 10.00 | Overcast | OVC017 | 36.1 | 30 | 79% | 30 | 29.98 | 0.0 | ||||||
| 04 | 22:55 | SW 6 | 10.00 | Overcast | BKN014 OVC020 | 36 | 31.1 | 44.4 | 36 | 83% | 32 | 29.99 | 0.0 | ||||
| 04 | 22:35 | W 6 | 9.00 | Overcast | BKN012 OVC019 | 36.1 | 31.5 | 83% | 32 | 29.99 | 0.0 | ||||||
| 04 | 22:15 | W 6 | 10.00 | Overcast | BKN011 OVC017 | 36.3 | 30.7 | 80% | 32 | 29.99 | 0.0 | ||||||
| 04 | 21:55 | Vrbl 6 | 9.00 | Overcast | BKN012 OVC019 | 36.3 | 31.6 | 83% | 32 | 30 | 0.0 | ||||||
| 04 | 21:35 | SW 9 | 10.00 | Overcast | BKN015 OVC020 | 36.3 | 31.1 | 81% | 30 | 29.99 | 0.0 | ||||||
| 04 | 21:15 | W 8 | 9.00 | Overcast | BKN011 OVC018 | 36.3 | 31.8 | 84% | 31 | 29.98 | 0.0 | ||||||
| 04 | 20:55 | SW 6 G 17 | 8.00 | Overcast | BKN011 OVC018 | 36.5 | 32.5 | 86% | 32 | 29.98 | 0.0 | ||||||
| 04 | 20:35 | SW 8 | 9.00 | Overcast | OVC012 | 36.9 | 31.3 | 80% | 31 | 29.98 | 0.0 | ||||||
| 04 | 20:15 | SW 9 | 10.00 | Overcast | BKN013 OVC019 | 36.9 | 30.7 | 79% | 31 | 29.98 | 0.0 | ||||||
| 04 | 19:55 | SW 6 G 18 | 10.00 | Overcast | BKN011 OVC018 | 37 | 31.5 | 80% | 33 | 29.98 | 0.0 | ||||||
| 04 | 19:35 | SW 13 G 21 | 9.00 | Overcast | OVC019 | 37.6 | 28.6 | 70% | 30 | 29.97 | 0.0 | ||||||
| 04 | 19:15 | SW 10 | 10.00 | Overcast | OVC018 | 38.1 | 28.2 | 68% | 32 | 29.97 | 0.0 | ||||||
| 04 | 18:55 | W 7 | 9.00 | Overcast | BKN016 OVC021 | 39.2 | 30.6 | 71% | 35 | 29.97 | 0.0 | ||||||
| 04 | 18:35 | Vrbl 7 | 9.00 | Overcast | BKN015 OVC021 | 38.5 | 31.8 | 77% | 34 | 29.99 | 0.0 | ||||||
| 04 | 18:15 | SW 10 | 9.00 | Overcast | OVC018 | 39 | 30.6 | 72% | 33 | 29.99 | 0.0 | ||||||
| 04 | 17:55 | W 9 G 22 | 9.00 | Overcast | SCT017 OVC022 | 39 | 30.2 | 71% | 33 | 29.99 | 0.0 | ||||||
| 04 | 17:35 | W 12 G 23 | 9.00 | Mostly Cloudy | BKN022 | 40.6 | 29.5 | 65% | 34 | 29.99 | 0.0 | ||||||
| 04 | 17:15 | W 12 G 21 | 9.00 | Fair | CLR | 41.5 | 29.1 | 61% | 36 | 29.99 | 0.0 | ||||||
| 04 | 16:55 | W 15 | 10.00 | Fair | CLR | 43.3 | 29.5 | 49.1 | 42.4 | 58% | 37 | 29.98 | 0.0 | ||||
| 04 | 16:35 | W 18 | 10.00 | A Few Clouds | FEW290 | 43.3 | 29.1 | 57% | 36 | 29.98 | 0.0 | ||||||
| 04 | 16:15 | W 16 | 9.00 | A Few Clouds | FEW240 | 42.8 | 28.9 | 58% | 36 | 29.99 | 0.0 | ||||||
| 04 | 15:55 | W 17 | 10.00 | Partly Cloudy | SCT025 SCT240 | 43.7 | 29.3 | 57% | 37 | 29.99 | 0.0 | ||||||
| 04 | 15:35 | W 16 | 10.00 | Mostly Cloudy | SCT025 BKN240 | 43.7 | 30 | 59% | 37 | 29.99 | 0.0 | ||||||
| 04 | 15:15 | W 15 | 10.00 | A Few Clouds | FEW370 | 44.1 | 29.3 | 56% | 38 | 29.99 | 0.0 | ||||||
| 04 | 14:55 | SW 10 G 17 | 10.00 | Partly Cloudy | SCT230 SCT290 | 45.9 | 29.7 | 53% | 41 | 30 | 0.0 | ||||||
| 04 | 14:35 | SW 10 G 20 | 10.00 | Partly Cloudy | SCT230 | 45 | 28.8 | 53% | 40 | 30 | 0.0 | ||||||
| 04 | 14:15 | W 13 | 10.00 | Partly Cloudy | FEW230 SCT350 | 44.8 | 29.1 | 54% | 39 | 30 | 0.0 | ||||||
| 04 | 13:55 | W 16 G 20 | 10.00 | A Few Clouds | FEW230 | 46.6 | 28.8 | 50% | 41 | 30 | 0.0 | ||||||
| 04 | 13:35 | SW 8 G 20 | 10.00 | A Few Clouds | FEW250 | 45.9 | 28.4 | 51% | 42 | 30 | 0.0 | ||||||
| 04 | 13:15 | W 8 | 10.00 | A Few Clouds | FEW250 | 48.2 | 27.3 | 44% | 45 | 29.99 | 0.0 | ||||||
| 04 | 12:55 | W 12 G 17 | 10.00 | Partly Cloudy | SCT230 SCT370 | 47.8 | 23.9 | 39% | 43 | 29.99 | 0.0 | ||||||
| 04 | 12:35 | W 17 | 10.00 | Partly Cloudy | SCT220 SCT240 | 48 | 24.3 | 39% | 42 | 29.99 | 0.0 | ||||||
| 04 | 12:15 | W 14 | 10.00 | A Few Clouds | FEW240 | 47.5 | 24.4 | 40% | 42 | 29.98 | 0.0 | ||||||
| 04 | 11:55 | SW 9 | 10.00 | A Few Clouds | FEW240 | 48.2 | 19.2 | 32% | 45 | 29.98 | 0.0 | ||||||
| 04 | 11:35 | SW 8 | 10.00 | A Few Clouds | FEW270 | 48.2 | 19.6 | 32% | 45 | 29.99 | 0.0 | ||||||
| 04 | 11:15 | W 12 | 10.00 | A Few Clouds | FEW230 | 48.7 | 21 | 33% | 44 | 29.99 | 0.0 | ||||||
| 04 | 10:55 | W 12 | 10.00 | A Few Clouds | FEW240 | 48.2 | 19 | 48.7 | 37.2 | 31% | 44 | 29.98 | 0.0 | ||||
| 04 | 10:35 | W 13 G 17 | 10.00 | Partly Cloudy | SCT230 | 48.4 | 12 | 23% | 44 | 29.98 | 0.0 | ||||||
| 04 | 10:15 | W 13 G 17 | 10.00 | Partly Cloudy | FEW220 SCT300 | 48 | 13.5 | 25% | 43 | 29.98 | 0.0 | ||||||
| 04 | 09:55 | SW 13 G 18 | 10.00 | Partly Cloudy | SCT220 | 47.7 | 7.5 | 19% | 43 | 29.97 | 0.0 | ||||||
| 04 | 09:35 | W 12 | 10.00 | A Few Clouds | FEW220 | 46 | 11.5 | 24% | 41 | 29.97 | 0.0 | ||||||
| 04 | 09:15 | W 9 | 10.00 | A Few Clouds | FEW240 | 45.5 | 10.8 | 24% | 41 | 29.97 | 0.0 | ||||||
| 04 | 08:55 | W 8 | 10.00 | A Few Clouds | FEW240 | 44.1 | 15.4 | 31% | 40 | 29.96 | 0.0 | ||||||
| 04 | 08:15 | Calm | 0.00 | NULL | NULL | 41.7 | 16.9 | 37% | 0 | 0.0 | |||||||
| 04 | 07:55 | W 7 | 10.00 | A Few Clouds | FEW240 | 40.3 | 16.7 | 38% | 36 | 29.96 | 0.0 | ||||||
| 04 | 07:35 | W 7 | 9.00 | A Few Clouds | FEW240 | 39.2 | 19.9 | 46% | 35 | 29.95 | 0.0 | ||||||
| 04 | 07:15 | Vrbl 7 | 10.00 | A Few Clouds | FEW230 | 38.1 | 21.9 | 52% | 34 | 29.96 | 0.0 | ||||||
| 04 | 06:55 | W 12 | 10.00 | A Few Clouds | FEW230 | 37.6 | 26.1 | 63% | 31 | 29.95 | 0.0 | ||||||
| 04 | 06:35 | W 8 | 10.00 | Partly Cloudy | SCT230 | 37.6 | 21.9 | 53% | 32 | 29.96 | 0.0 | ||||||
| 04 | 06:15 | W 8 | 10.00 | Partly Cloudy | SCT240 | 38.1 | 19.9 | 48% | 33 | 29.95 | 0.0 | ||||||
| 04 | 05:55 | W 9 | 10.00 | Mostly Cloudy | SCT240 BKN290 | 37.9 | 21 | 51% | 32 | 29.95 | 0.0 | ||||||
| 04 | 05:35 | W 8 | 10.00 | Mostly Cloudy | BKN240 | 38.1 | 21.7 | 52% | 33 | 29.95 | 0.0 | ||||||
| 04 | 05:15 | W 10 | 10.00 | Mostly Cloudy | BKN240 | 38.7 | 19.2 | 46% | 32 | 29.94 | 0.0 | ||||||
| 04 | 04:55 | Vrbl 6 | 10.00 | Mostly Cloudy | BKN240 | 36.1 | 21.6 | 37.8 | 33.8 | 55% | 32 | 29.94 | 0.0 | ||||
| 04 | 04:35 | SW 6 | 10.00 | A Few Clouds | FEW240 | 36.7 | 20.8 | 53% | 33 | 29.95 | 0.0 | ||||||
| 04 | 04:15 | SW 7 | 10.00 | Fair | CLR | 35.4 | 24.4 | 64% | 30 | 29.95 | 0.0 | ||||||
| 04 | 03:55 | SW 3 | 10.00 | Partly Cloudy | SCT240 SCT270 | 33.8 | 28.2 | 80% | 29.95 | 0.0 | |||||||
| 04 | 03:35 | Calm | 10.00 | Mostly Cloudy | BKN230 BKN270 BKN290 | 34.3 | 29.5 | 82% | 29.95 | 0.0 | |||||||
| 04 | 03:15 | Calm | 10.00 | Mostly Cloudy | SCT220 BKN300 | 35.1 | 30.2 | 82% | 29.95 | 0.0 | |||||||
| 04 | 02:55 | SW 3 | 10.00 | Partly Cloudy | SCT230 | 35.2 | 31.5 | 86% | 29.95 | 0.0 | |||||||
| 04 | 02:35 | Calm | 10.00 | Mostly Cloudy | SCT220 BKN240 | 35.8 | 32 | 86% | 29.96 | 0.0 | |||||||
| 04 | 02:15 | NW 3 | 10.00 | Partly Cloudy | FEW010 SCT220 | 36.3 | 32 | 84% | 29.97 | 0.0 | |||||||
| Date | Time (pdt) | Wind (mph) | Vis. (mi.) | Weather | Sky Cond. | Air | Dwpt | Max. | Min. | Relative Humidity | Wind Chill (°F) | Heat Index (°F) | altimeter (in) | sea level (mb) | 1 hr | 3 hr | 6 hr |
| 6 hour | |||||||||||||||||
| Temperature (ºF) | Pressure | Precipitation (in) | |||||||||||||||